Terminal Aerodrome Forecast
Issued by NWS Bismarck, ND

Home | Current Version | Previous Version | Graphics & Text | Print | Product List | Glossary On
Versions: 1 2 3 4 5 6 7 8 9 10 11 12 13 14
483
FTUS43 KBIS 221737
TAFISN
TAF
KISN 221737Z 2218/2318 31008KT P6SM FEW100 SCT250
     FM230400 33004KT P6SM FEW120 FEW250
     FM231400 36011KT P6SM BKN070=

USA.gov is the U.S. government's official web portal to all federal, state and local government web resources and services.